Time;durP1;ratioP1;P1;durP2;ratioP2;P2;SDS_P1;SDS_P2;PMS_P1;PMS_P2;Temp;Humidity;BMP_temperature;BMP_pressure;BME280_temperature;BME280_humidity;BME280_pressure;Samples;Min_cycle;Max_cycle;Signal;HPM_P1;HPM_P2
2021/11/17 02:28:24;;;;;;;36.90;18.45;;;5.80;99.90;;;;;;5054343;28;20080;-88
2021/11/17 02:31:26;;;;;;;38.05;18.58;;;5.90;99.90;;;;;;5036574;28;20044;-87
2021/11/17 02:34:33;;;;;;;33.63;18.17;;;5.90;99.90;;;;;;5021761;28;20072;-87
2021/11/17 02:37:46;;;;;;;34.58;18.60;;;5.80;99.90;;;;;;5024186;28;20540;-88
2021/11/17 02:40:16;;;;;;;39.15;19.65;;;5.80;99.90;;;;;;5036207;28;20111;-87
2021/11/17 02:43:25;;;;;;;35.08;18.17;;;5.80;99.90;;;;;;5036233;28;20041;-87
2021/11/17 02:46:10;;;;;;;33.25;17.55;;;5.80;99.90;;;;;;4961680;28;20053;-87
2021/11/17 02:48:37;;;;;;;37.72;18.75;;;5.80;99.90;;;;;;5026230;28;20065;-87
2021/11/17 02:51:33;;;;;;;37.47;18.13;;;5.80;99.90;;;;;;5032718;28;20092;-88
2021/11/17 02:54:05;;;;;;;37.42;17.73;;;5.80;99.90;;;;;;4982115;28;20061;-88
2021/11/17 02:57:05;;;;;;;38.97;18.42;;;5.80;99.90;;;;;;5032547;28;20141;-88
2021/11/17 02:59:47;;;;;;;40.75;20.75;;;5.80;99.90;;;;;;5019387;28;20498;-87
2021/11/17 03:02:41;;;;;;;40.70;19.40;;;5.70;99.90;;;;;;5016594;28;20054;-88
2021/11/17 03:05:33;;;;;;;40.17;18.88;;;5.60;99.90;;;;;;5002001;28;20053;-86
2021/11/17 03:08:24;;;;;;;43.55;18.50;;;5.60;99.90;;;;;;5032314;28;20511;-88
2021/11/17 03:11:26;;;;;;;43.28;19.20;;;5.60;99.90;;;;;;5032392;28;20535;-87
2021/11/17 03:14:11;;;;;;;37.83;17.85;;;5.50;99.90;;;;;;5017262;28;20057;-87
2021/11/17 03:17:38;;;;;;;38.58;18.45;;;5.60;99.90;;;;;;5032108;28;20056;-88
2021/11/17 03:20:21;;;;;;;36.00;17.15;;;5.50;99.90;;;;;;5032927;28;20053;-87
2021/11/17 03:23:29;;;;;;;31.58;16.10;;;5.50;99.90;;;;;;5015467;28;20423;-87
2021/11/17 03:26:20;;;;;;;32.88;17.50;;;5.50;99.90;;;;;;5003288;28;20055;-88
2021/11/17 03:29:15;;;;;;;39.83;17.85;;;5.50;99.90;;;;;;5032498;28;20045;-87
2021/11/17 03:32:11;;;;;;;35.97;17.65;;;5.60;99.90;;;;;;5032172;28;20049;-87
2021/11/17 03:34:54;;;;;;;51.25;18.90;;;5.60;99.90;;;;;;5032965;28;20493;-87
2021/11/17 03:37:23;;;;;;;38.63;16.95;;;5.60;99.90;;;;;;5001092;28;20477;-87
2021/11/17 03:40:31;;;;;;;34.28;16.67;;;5.50;99.90;;;;;;5031971;28;20057;-87
2021/11/17 03:43:04;;;;;;;34.65;16.60;;;5.50;99.90;;;;;;5015518;28;20050;-87
2021/11/17 03:46:02;;;;;;;33.20;17.42;;;5.60;99.90;;;;;;5031655;28;20059;-87
2021/11/17 03:48:37;;;;;;;34.80;17.13;;;5.60;99.90;;;;;;5031741;28;20093;-88
2021/11/17 03:51:32;;;;;;;38.08;18.75;;;5.70;99.90;;;;;;5032233;28;20096;-87
2021/11/17 03:54:08;;;;;;;40.13;18.90;;;5.70;99.90;;;;;;5031727;28;20540;-88
2021/11/17 03:56:38;;;;;;;37.13;18.65;;;5.70;99.90;;;;;;5016049;28;20055;-88
2021/11/17 03:59:12;;;;;;;26.80;13.57;;;5.60;99.90;;;;;;5031771;28;20139;-87
2021/11/17 04:02:07;;;;;;;26.73;14.38;;;5.60;99.90;;;;;;5015520;28;20511;-88
2021/11/17 04:04:43;;;;;;;25.58;12.95;;;5.60;99.90;;;;;;5015579;28;20049;-87
2021/11/17 04:07:35;;;;;;;19.52;11.73;;;5.60;99.90;;;;;;5016351;28;20478;-87
2021/11/17 04:10:18;;;;;;;24.85;12.52;;;5.60;99.90;;;;;;5015991;28;20049;-88
2021/11/17 04:13:16;;;;;;;21.58;11.52;;;5.60;99.90;;;;;;5016040;28;20134;-87
2021/11/17 04:16:05;;;;;;;17.92;9.40;;;5.60;99.90;;;;;;5018262;28;20085;-88
2021/11/17 04:18:38;;;;;;;16.45;8.60;;;5.60;99.90;;;;;;5032029;28;20049;-87
2021/11/17 04:21:10;;;;;;;11.75;7.90;;;5.60;99.90;;;;;;5031985;28;20147;-88
2021/11/17 04:24:02;;;;;;;11.27;7.75;;;5.60;99.90;;;;;;5031608;28;20054;-88
2021/11/17 04:26:48;;;;;;;11.20;6.90;;;5.60;99.90;;;;;;5031649;28;20211;-88
2021/11/17 04:29:44;;;;;;;12.13;7.38;;;5.60;99.90;;;;;;5032023;28;20076;-88
2021/11/17 04:32:26;;;;;;;10.48;7.43;;;5.60;99.90;;;;;;5017773;28;20082;-87
2021/11/17 04:34:59;;;;;;;11.45;7.15;;;5.70;99.90;;;;;;5016827;28;20045;-88
2021/11/17 04:37:41;;;;;;;11.35;7.82;;;5.60;99.90;;;;;;5036463;28;20056;-88
2021/11/17 04:40:37;;;;;;;13.38;8.23;;;5.60;99.90;;;;;;5018711;28;20569;-87
2021/11/17 04:43:49;;;;;;;11.35;7.32;;;5.60;99.90;;;;;;5035390;28;20058;-88
2021/11/17 04:46:37;;;;;;;12.48;7.82;;;5.60;99.90;;;;;;5018691;28;20131;-88
2021/11/17 04:49:22;;;;;;;11.13;7.00;;;5.60;99.90;;;;;;5022325;28;20144;-88
2021/11/17 04:52:02;;;;;;;10.30;7.05;;;5.60;99.90;;;;;;5038812;28;20052;-88
2021/11/17 04:54:50;;;;;;;10.20;6.72;;;5.60;99.90;;;;;;5022089;28;20087;-88
2021/11/17 04:57:20;;;;;;;10.77;6.88;;;5.60;99.90;;;;;;5056261;28;20049;-88
2021/11/17 04:59:59;;;;;;;12.55;8.00;;;5.70;99.90;;;;;;5038631;28;20492;-88
2021/11/17 05:02:43;;;;;;;12.00;7.70;;;5.70;99.90;;;;;;5037198;28;20179;-88
2021/11/17 05:05:19;;;;;;;10.55;7.00;;;5.70;99.90;;;;;;5020402;28;20544;-88
2021/11/17 05:07:58;;;;;;;13.20;7.22;;;5.80;99.90;;;;;;5020563;28;20041;-88
2021/11/17 05:10:33;;;;;;;10.93;7.38;;;5.70;99.90;;;;;;5020224;28;20053;-88
2021/11/17 05:13:18;;;;;;;13.82;7.88;;;5.70;99.90;;;;;;5053982;28;20488;-87
2021/11/17 05:16:25;;;;;;;14.18;7.78;;;5.80;99.90;;;;;;5038970;28;20481;-87
2021/11/17 05:19:17;;;;;;;10.88;6.78;;;5.70;99.90;;;;;;5024309;28;20049;-88
2021/11/17 05:22:12;;;;;;;10.90;6.28;;;5.60;99.90;;;;;;5055483;28;20125;-88
2021/11/17 05:24:58;;;;;;;13.27;7.65;;;5.60;99.90;;;;;;5026207;28;20481;-87
2021/11/17 05:27:30;;;;;;;10.32;6.47;;;5.60;99.90;;;;;;5037984;28;20076;-87
2021/11/17 05:30:18;;;;;;;9.57;6.77;;;5.50;99.90;;;;;;5038082;28;20056;-88
2021/11/17 05:33:06;;;;;;;10.32;7.03;;;5.40;99.90;;;;;;5022363;28;20063;-88
2021/11/17 05:35:51;;;;;;;8.88;5.93;;;5.30;99.90;;;;;;5037454;28;20057;-87
2021/11/17 05:39:01;;;;;;;63.70;38.40;;;5.40;99.90;;;;;;5037803;28;20127;-87
2021/11/17 05:42:09;;;;;;;139.05;77.07;;;5.20;99.90;;;;;;5007207;28;20507;-87
2021/11/17 05:45:19;;;;;;;46.20;27.35;;;5.30;99.90;;;;;;5020885;28;20049;-88
2021/11/17 05:48:12;;;;;;;26.67;15.63;;;5.30;99.90;;;;;;5035883;28;20063;-88
2021/11/17 05:50:51;;;;;;;20.80;12.48;;;5.40;99.90;;;;;;5020806;28;20049;-88
2021/11/17 05:54:09;;;;;;;14.30;9.48;;;5.50;99.90;;;;;;5019534;28;20051;-88
2021/11/17 05:57:03;;;;;;;14.15;8.20;;;5.50;99.90;;;;;;5004924;28;20049;-87
2021/11/17 05:59:36;;;;;;;;;;;5.40;99.90;;;;;;5021701;28;20080;-88
2021/11/17 06:02:27;;;;;;;12.05;7.85;;;5.40;99.90;;;;;;5037534;28;19921;-88
2021/11/17 06:04:54;;;;;;;11.73;7.50;;;5.40;99.90;;;;;;5007536;28;20044;-88
2021/11/17 06:07:20;;;;;;;14.68;8.98;;;5.40;99.90;;;;;;5037564;28;20049;-88
2021/11/17 06:09:47;;;;;;;15.75;8.30;;;5.40;99.90;;;;;;5037636;28;20095;-88
2021/11/17 06:12:16;;;;;;;9.43;6.15;;;5.40;99.90;;;;;;5037402;28;20044;-88
2021/11/17 06:14:47;;;;;;;13.68;9.60;;;5.40;99.90;;;;;;5037072;28;20496;-87
2021/11/17 06:17:21;;;;;;;12.88;7.10;;;5.30;99.90;;;;;;5054510;28;20049;-87
2021/11/17 06:19:50;;;;;;;10.63;7.10;;;5.40;99.90;;;;;;5037117;28;20049;-88
2021/11/17 06:22:21;;;;;;;11.45;7.25;;;5.30;99.90;;;;;;5037281;28;20051;-87
2021/11/17 06:24:49;;;;;;;16.17;7.95;;;5.30;99.90;;;;;;5037459;28;20111;-87
2021/11/17 06:27:20;;;;;;;14.23;7.35;;;5.40;99.90;;;;;;5036965;28;20045;-88
2021/11/17 06:29:54;;;;;;;10.88;6.93;;;5.30;99.90;;;;;;5037722;28;20041;-88
2021/11/17 06:32:20;;;;;;;45.35;23.70;;;5.30;99.90;;;;;;5036735;28;20131;-88
2021/11/17 06:34:50;;;;;;;38.25;22.60;;;5.20;99.90;;;;;;5054472;28;20103;-88
2021/11/17 06:37:20;;;;;;;22.83;13.52;;;5.30;99.90;;;;;;5035984;28;20124;-87
2021/11/17 06:39:49;;;;;;;21.75;11.85;;;5.10;99.90;;;;;;5053683;28;20087;-88
2021/11/17 06:42:30;;;;;;;11.35;7.07;;;5.20;99.90;;;;;;5036114;28;20058;-88
2021/11/17 06:44:58;;;;;;;18.35;7.75;;;5.30;99.90;;;;;;5036349;28;20045;-88
2021/11/17 06:47:25;;;;;;;9.25;5.78;;;5.20;99.90;;;;;;5053592;28;20052;-88
2021/11/17 06:49:53;;;;;;;10.45;6.50;;;5.20;99.90;;;;;;5051136;28;20041;-89
2021/11/17 06:52:21;;;;;;;11.13;7.07;;;5.30;99.90;;;;;;5045055;28;20126;-88
2021/11/17 06:54:48;;;;;;;8.65;6.57;;;5.30;99.90;;;;;;5070332;28;20052;-88
2021/11/17 06:57:18;;;;;;;7.43;5.63;;;5.40;99.90;;;;;;5055828;28;20099;-88
2021/11/17 06:59:46;;;;;;;6.25;5.05;;;5.40;99.90;;;;;;5056303;28;20080;-88
2021/11/17 07:02:13;;;;;;;8.63;6.60;;;5.40;99.90;;;;;;5072105;28;20048;-87
2021/11/17 07:04:40;;;;;;;12.80;8.18;;;5.50;99.90;;;;;;5073289;28;20059;-88
2021/11/17 07:07:09;;;;;;;10.70;7.28;;;5.40;99.90;;;;;;5055788;28;20131;-88
2021/11/17 07:09:36;;;;;;;14.50;9.15;;;5.50;99.90;;;;;;5055778;28;20102;-88
2021/11/17 07:12:03;;;;;;;20.67;13.10;;;5.40;99.90;;;;;;5073493;28;20048;-88
2021/11/17 07:14:31;;;;;;;13.27;8.85;;;5.60;99.90;;;;;;5069508;28;20359;-87
2021/11/17 07:16:58;;;;;;;9.80;6.82;;;5.60;99.90;;;;;;5045164;28;20068;-88
2021/11/17 07:19:26;;;;;;;9.48;6.60;;;5.70;99.90;;;;;;5049770;28;20110;-88
2021/11/17 07:21:59;;;;;;;9.88;6.38;;;5.70;99.90;;;;;;5055811;28;20052;-88
2021/11/17 07:24:27;;;;;;;9.32;6.10;;;5.80;99.90;;;;;;5055253;28;20059;-88
2021/11/17 07:26:55;;;;;;;12.90;8.02;;;5.80;99.90;;;;;;5055447;28;20055;-88
2021/11/17 07:29:22;;;;;;;11.27;7.35;;;5.80;99.90;;;;;;5055622;28;20044;-88
2021/11/17 07:31:49;;;;;;;10.90;7.18;;;5.80;99.90;;;;;;5073424;28;20048;-88
2021/11/17 07:34:17;;;;;;;8.25;6.20;;;5.90;99.90;;;;;;5073199;28;20045;-88
2021/11/17 07:36:45;;;;;;;12.88;7.65;;;6.00;99.90;;;;;;5055284;28;20050;-87
2021/11/17 07:39:15;;;;;;;11.68;6.60;;;5.80;99.90;;;;;;5055714;28;20095;-88
2021/11/17 07:41:48;;;;;;;8.48;6.50;;;5.80;99.90;;;;;;5055352;28;20044;-88
2021/11/17 07:44:17;;;;;;;8.60;6.45;;;5.80;99.90;;;;;;5055682;28;20119;-88
2021/11/17 07:46:46;;;;;;;10.05;5.90;;;5.70;99.90;;;;;;5051836;28;20063;-87
2021/11/17 07:49:15;;;;;;;8.43;5.25;;;5.70;99.90;;;;;;5052985;28;20080;-88
2021/11/17 07:51:42;;;;;;;9.25;6.40;;;5.60;99.90;;;;;;5052119;28;20048;-88
2021/11/17 07:54:10;;;;;;;9.40;6.78;;;5.70;99.90;;;;;;5049653;28;20055;-88
2021/11/17 07:56:40;;;;;;;7.47;5.65;;;5.80;99.90;;;;;;5043023;28;20136;-88
2021/11/17 07:59:08;;;;;;;9.48;5.78;;;5.80;99.90;;;;;;5050153;28;20048;-88
2021/11/17 08:01:35;;;;;;;4.93;4.18;;;5.90;99.90;;;;;;5053625;28;20080;-88
2021/11/17 08:04:03;;;;;;;3.75;3.40;;;5.90;99.90;;;;;;5051741;28;20057;-88
2021/11/17 08:06:30;;;;;;;5.28;3.97;;;6.00;99.90;;;;;;5052853;28;20088;-88
2021/11/17 08:08:57;;;;;;;4.80;4.40;;;6.10;99.90;;;;;;5052006;28;20138;-88
2021/11/17 08:11:24;;;;;;;3.90;3.58;;;6.10;99.90;;;;;;5055475;28;20055;-89
2021/11/17 08:13:51;;;;;;;1.90;1.80;;;6.20;99.90;;;;;;5055736;28;20497;-87
2021/11/17 08:16:18;;;;;;;2.50;2.30;;;6.10;99.90;;;;;;5055561;28;20045;-88
2021/11/17 08:18:45;;;;;;;2.45;2.25;;;6.20;99.90;;;;;;5055391;28;20056;-89
2021/11/17 08:21:15;;;;;;;1.90;1.80;;;6.20;99.90;;;;;;5056659;28;20045;-88
2021/11/17 08:23:43;;;;;;;2.08;1.70;;;6.30;99.90;;;;;;5056680;28;20246;-88
2021/11/17 08:26:10;;;;;;;3.60;1.80;;;6.30;99.90;;;;;;5055424;28;20055;-88
2021/11/17 08:28:39;;;;;;;2.20;1.63;;;6.30;99.90;;;;;;5055237;28;20504;-88
2021/11/17 08:31:05;;;;;;;2.30;2.10;;;6.40;99.90;;;;;;5055505;28;20140;-88
2021/11/17 08:33:32;;;;;;;1.95;1.85;;;6.30;99.90;;;;;;5056323;28;20090;-88
2021/11/17 08:36:01;;;;;;;1.33;1.30;;;6.40;99.90;;;;;;5055584;28;20084;-88
2021/11/17 08:38:29;;;;;;;1.77;1.60;;;6.40;99.90;;;;;;5055291;28;20051;-88
2021/11/17 08:41:00;;;;;;;1.75;1.65;;;6.40;99.90;;;;;;5056208;28;20055;-87
2021/11/17 08:43:30;;;;;;;1.42;1.33;;;6.40;99.90;;;;;;5055609;28;20382;-88
2021/11/17 08:45:58;;;;;;;1.38;1.27;;;6.30;99.90;;;;;;5054953;28;20059;-88
2021/11/17 08:48:28;;;;;;;2.20;1.70;;;6.30;99.90;;;;;;5054968;28;20489;-88
2021/11/17 08:50:57;;;;;;;1.77;1.63;;;6.20;99.90;;;;;;5055240;28;20052;-89
2021/11/17 08:53:25;;;;;;;2.00;1.80;;;6.20;99.90;;;;;;5055586;28;20049;-88
2021/11/17 08:55:53;;;;;;;1.92;1.63;;;6.20;99.90;;;;;;5052090;28;20063;-88
2021/11/17 08:58:22;;;;;;;1.60;1.50;;;6.10;99.90;;;;;;5045855;28;20041;-88
2021/11/17 09:00:51;;;;;;;1.67;1.58;;;6.10;99.90;;;;;;5041972;28;20051;-89
2021/11/17 09:03:19;;;;;;;1.75;1.65;;;6.00;99.90;;;;;;5040620;28;20677;-88
2021/11/17 09:05:49;;;;;;;1.70;1.60;;;6.00;99.90;;;;;;5034859;28;20049;-88
2021/11/17 09:08:17;;;;;;;2.50;1.35;;;5.90;99.90;;;;;;5034824;28;20050;-89
2021/11/17 09:10:53;;;;;;;;;;;5.90;99.90;;;;;;5035819;28;20412;-88
2021/11/17 09:13:20;;;;;;;1.60;1.50;;;5.90;99.90;;;;;;5035832;28;19927;-88
2021/11/17 09:15:50;;;;;;;1.70;1.40;;;5.90;99.90;;;;;;5035677;28;20059;-88
2021/11/17 09:18:20;;;;;;;2.80;1.65;;;6.00;99.90;;;;;;5034659;28;20077;-88
2021/11/17 09:20:47;;;;;;;1.30;1.20;;;6.00;99.90;;;;;;5033874;28;20424;-88
2021/11/17 09:23:15;;;;;;;1.85;1.75;;;6.10;99.90;;;;;;5034091;28;20049;-88
2021/11/17 09:25:42;;;;;;;1.30;1.20;;;6.10;99.90;;;;;;5034550;28;20051;-89
2021/11/17 09:28:09;;;;;;;1.30;1.30;;;6.20;99.90;;;;;;5034637;28;20062;-87
2021/11/17 09:30:39;;;;;;;0.98;0.98;;;6.20;99.90;;;;;;5034315;28;20076;-88
2021/11/17 09:33:10;;;;;;;1.30;1.20;;;6.30;99.90;;;;;;5034173;28;20053;-88
2021/11/17 09:35:38;;;;;;;1.08;0.93;;;6.40;99.90;;;;;;5034879;28;20088;-88
2021/11/17 09:38:07;;;;;;;1.10;1.00;;;6.40;99.90;;;;;;5034250;28;20140;-88
2021/11/17 09:40:46;;;;;;;1.10;1.00;;;6.40;99.90;;;;;;5034250;28;20053;-88
2021/11/17 09:43:18;;;;;;;1.70;0.98;;;6.40;99.90;;;;;;5034128;28;20046;-88
2021/11/17 09:45:47;;;;;;;0.90;0.90;;;6.30;99.90;;;;;;5034873;28;20051;-88
2021/11/17 09:48:18;;;;;;;1.00;1.00;;;6.30;99.90;;;;;;5050334;28;20056;-88
2021/11/17 09:50:51;;;;;;;1.45;1.35;;;6.30;99.90;;;;;;5054990;28;20100;-89
2021/11/17 09:53:29;;;;;;;1.45;1.00;;;6.20;99.90;;;;;;5054059;28;20045;-88
2021/11/17 09:56:01;;;;;;;1.75;0.90;;;6.30;99.90;;;;;;5054722;28;20085;-88
2021/11/17 09:58:32;;;;;;;0.70;0.70;;;6.20;99.90;;;;;;5053065;28;20044;-89
2021/11/17 10:01:22;;;;;;;1.92;0.80;;;6.20;99.90;;;;;;5054054;28;20049;-89
2021/11/17 10:04:13;;;;;;;0.52;0.50;;;6.30;99.90;;;;;;5041595;28;20101;-87
2021/11/17 10:09:55;;;;;;;0.85;0.85;;;6.30;99.90;;;;;;5044747;28;20056;-89
2021/11/17 10:15:41;;;;;;;1.60;0.50;;;6.30;99.90;;;;;;4992340;28;20056;-88
2021/11/17 10:18:17;;;;;;;0.43;0.43;;;6.30;99.90;;;;;;4976819;28;20054;-89
2021/11/17 10:20:56;;;;;;;2.15;0.50;;;6.30;99.90;;;;;;5015175;28;20056;-89
2021/11/17 10:23:29;;;;;;;2.28;0.50;;;6.40;99.90;;;;;;5033052;28;20258;-88
2021/11/17 10:25:56;;;;;;;0.50;0.47;;;6.50;99.90;;;;;;5031880;28;20057;-89
2021/11/17 10:28:28;;;;;;;0.70;0.70;;;6.50;99.90;;;;;;5033185;28;20099;-88
2021/11/17 10:31:09;;;;;;;0.70;0.70;;;6.40;99.90;;;;;;5032052;28;20075;-88
2021/11/17 10:34:13;;;;;;;34.60;3.33;;;6.40;99.90;;;;;;5032869;28;20063;-89
2021/11/17 10:36:48;;;;;;;0.52;0.52;;;6.50;99.90;;;;;;5032206;28;20049;-88
2021/11/17 10:39:26;;;;;;;1.92;0.88;;;6.40;99.90;;;;;;5034066;28;20532;-89
2021/11/17 10:42:08;;;;;;;1.75;0.80;;;6.30;99.90;;;;;;5033244;28;20049;-88
2021/11/17 10:45:00;;;;;;;1.95;0.75;;;6.20;99.90;;;;;;5033089;28;20060;-87
2021/11/17 10:47:45;;;;;;;2.72;0.90;;;6.30;99.90;;;;;;5046542;28;20053;-89
2021/11/17 10:50:27;;;;;;;1.65;0.50;;;6.20;99.90;;;;;;5035715;28;20542;-86
2021/11/17 10:53:10;;;;;;;2.47;0.82;;;6.20;99.90;;;;;;5036236;28;20071;-89
2021/11/17 10:55:46;;;;;;;1.98;0.73;;;6.20;99.90;;;;;;5036226;28;20053;-88
2021/11/17 10:58:19;;;;;;;1.20;0.65;;;6.20;99.90;;;;;;5036123;28;20052;-88
2021/11/17 11:00:50;;;;;;;0.95;0.95;;;6.30;99.90;;;;;;5050995;28;20049;-89
2021/11/17 11:03:20;;;;;;;0.75;0.75;;;6.30;99.90;;;;;;5036202;28;20060;-88
2021/11/17 11:05:59;;;;;;;0.90;0.70;;;6.30;99.90;;;;;;5036037;28;20155;-88
2021/11/17 11:08:39;;;;;;;1.80;0.90;;;6.30;99.90;;;;;;5035465;28;20516;-88
2021/11/17 11:11:06;;;;;;;10.85;1.75;;;6.30;99.90;;;;;;5036117;28;20139;-89
2021/11/17 11:13:44;;;;;;;5.68;1.00;;;6.30;99.90;;;;;;5036294;28;20100;-89
2021/11/17 11:16:36;;;;;;;1.13;0.68;;;6.30;99.90;;;;;;5036017;28;20051;-89
2021/11/17 11:19:09;;;;;;;2.97;0.50;;;6.30;99.90;;;;;;5053214;28;20131;-88
2021/11/17 11:21:41;;;;;;;0.73;0.60;;;6.30;99.90;;;;;;5035915;28;20055;-88
2021/11/17 11:24:27;;;;;;;5.30;0.70;;;6.40;99.90;;;;;;5035992;28;20064;-89
2021/11/17 11:27:00;;;;;;;0.70;0.70;;;6.50;99.90;;;;;;5035792;28;20080;-88
2021/11/17 11:29:39;;;;;;;2.40;0.50;;;6.50;99.90;;;;;;5053419;28;20088;-89
2021/11/17 11:32:15;;;;;;;0.90;0.80;;;6.60;99.90;;;;;;5035844;28;20512;-88
2021/11/17 11:35:03;;;;;;;0.65;0.65;;;6.60;99.90;;;;;;5035830;28;20045;-88
2021/11/17 11:37:32;;;;;;;4.63;0.93;;;6.60;99.90;;;;;;5035851;28;20501;-89
2021/11/17 11:40:05;;;;;;;1.75;0.43;;;6.70;99.90;;;;;;5035911;28;20041;-88
2021/11/17 11:43:04;;;;;;;1.13;1.00;;;6.70;99.90;;;;;;5035202;28;20156;-88
2021/11/17 11:45:30;;;;;;;6.63;5.05;;;6.80;99.90;;;;;;5055156;28;20136;-89
2021/11/17 11:47:58;;;;;;;2.70;2.42;;;6.80;99.90;;;;;;5036329;28;20412;-89
2021/11/17 11:50:35;;;;;;;1.17;1.17;;;6.90;99.90;;;;;;5036519;28;20485;-89
2021/11/17 11:53:55;;;;;;;1.73;0.80;;;6.80;99.90;;;;;;5036240;28;20076;-89
2021/11/17 11:56:43;;;;;;;2.00;1.02;;;6.70;99.90;;;;;;4960177;28;20055;-87
2021/11/17 11:59:14;;;;;;;0.85;0.85;;;6.50;99.90;;;;;;5036127;28;20129;-89
2021/11/17 12:01:41;;;;;;;0.95;0.95;;;6.50;99.90;;;;;;5036285;28;20549;-89
2021/11/17 12:04:16;;;;;;;2.05;0.90;;;6.40;99.90;;;;;;5035818;28;20050;-89
2021/11/17 12:06:47;;;;;;;1.50;1.40;;;6.40;99.90;;;;;;5037099;28;20497;-89
2021/11/17 12:09:21;;;;;;;2.28;1.33;;;6.30;99.90;;;;;;5036256;28;20056;-88
2021/11/17 12:11:55;;;;;;;0.93;0.93;;;6.30;99.90;;;;;;5036136;28;20049;-88
2021/11/17 12:14:34;;;;;;;1.05;1.05;;;6.30;99.90;;;;;;5036071;28;20402;-88
2021/11/17 12:17:02;;;;;;;1.05;1.05;;;6.30;99.90;;;;;;5036125;28;20537;-87
2021/11/17 12:19:41;;;;;;;2.80;1.23;;;6.20;99.90;;;;;;5037180;28;20041;-88
2021/11/17 12:22:19;;;;;;;1.13;1.08;;;6.20;99.90;;;;;;5035848;28;20548;-89
2021/11/17 12:24:53;;;;;;;1.02;1.00;;;6.20;99.90;;;;;;5031642;28;20056;-89
2021/11/17 12:27:31;;;;;;;1.20;1.10;;;6.20;99.90;;;;;;5035904;28;20076;-88
2021/11/17 12:30:03;;;;;;;3.72;1.20;;;6.30;99.90;;;;;;5035888;28;20049;-88
2021/11/17 12:32:49;;;;;;;1.13;1.13;;;6.20;99.90;;;;;;5036755;28;20497;-88
2021/11/17 12:35:33;;;;;;;1.77;1.40;;;6.20;99.90;;;;;;5036521;28;20067;-89
2021/11/17 12:38:08;;;;;;;4.40;1.65;;;6.30;99.90;;;;;;5035642;28;20519;-88
2021/11/17 12:40:48;;;;;;;3.90;1.40;;;6.30;99.90;;;;;;5035596;28;20136;-88
2021/11/17 12:43:29;;;;;;;1.20;1.10;;;6.40;99.90;;;;;;5035702;28;20429;-89
2021/11/17 12:46:12;;;;;;;1.38;1.27;;;6.30;99.90;;;;;;5036407;28;20081;-88
2021/11/17 12:48:49;;;;;;;0.90;0.90;;;6.40;99.90;;;;;;5034941;28;20081;-88
2021/11/17 12:51:20;;;;;;;1.17;1.13;;;6.40;99.90;;;;;;5035227;28;20447;-87
2021/11/17 12:54:21;;;;;;;1.48;1.10;;;6.60;99.90;;;;;;5035175;28;20049;-88
2021/11/17 12:57:04;;;;;;;1.33;1.30;;;6.60;99.90;;;;;;5034773;28;20240;-88
2021/11/17 12:59:40;;;;;;;1.70;1.60;;;6.70;99.90;;;;;;5036031;28;20053;-88
2021/11/17 13:02:27;;;;;;;2.83;1.27;;;6.70;99.90;;;;;;5034897;28;20576;-88
2021/11/17 13:05:20;;;;;;;2.63;1.10;;;6.70;99.90;;;;;;5034828;28;20061;-89
2021/11/17 13:08:00;;;;;;;1.08;0.85;;;6.80;99.90;;;;;;5034705;28;20515;-88
2021/11/17 13:10:59;;;;;;;9.32;1.63;;;6.90;99.90;;;;;;5034614;28;20061;-88
2021/11/17 13:13:39;;;;;;;1.00;1.00;;;6.90;99.90;;;;;;5035908;28;20054;-88
2021/11/17 13:16:18;;;;;;;1.65;1.35;;;7.10;99.90;;;;;;5034486;28;20060;-88
2021/11/17 13:18:45;;;;;;;18.85;2.22;;;7.30;99.90;;;;;;5034810;28;20050;-88
2021/11/17 13:21:21;;;;;;;0.98;0.90;;;7.30;99.90;;;;;;5034619;28;20132;-88
2021/11/17 13:23:57;;;;;;;19.67;2.78;;;7.30;99.90;;;;;;5034729;28;20052;-88
2021/11/17 13:26:35;;;;;;;1.45;1.40;;;7.30;99.90;;;;;;5034472;28;20136;-89
2021/11/17 13:29:29;;;;;;;1.30;1.03;;;7.30;99.90;;;;;;5035638;28;20088;-89
2021/11/17 13:32:08;;;;;;;0.90;0.90;;;7.30;99.90;;;;;;5034446;28;20371;-88
2021/11/17 13:34:39;;;;;;;1.95;1.10;;;7.30;99.90;;;;;;5034500;28;20061;-88
2021/11/17 13:37:53;;;;;;;18.77;1.95;;;7.40;99.90;;;;;;5034460;28;20045;-88
2021/11/17 13:40:23;;;;;;;0.63;0.63;;;7.40;99.90;;;;;;4958349;28;20053;-87
2021/11/17 13:42:51;;;;;;;3.65;1.35;;;7.40;99.90;;;;;;4958352;28;20080;-87
2021/11/17 13:45:27;;;;;;;1.45;0.85;;;7.40;99.90;;;;;;4995150;28;20052;-88
2021/11/17 13:47:54;;;;;;;10.27;1.30;;;7.50;99.90;;;;;;5033809;28;20523;-88
2021/11/17 13:50:26;;;;;;;5.93;1.10;;;7.50;99.90;;;;;;5033943;28;20125;-87
2021/11/17 13:52:55;;;;;;;8.38;1.58;;;7.60;99.90;;;;;;5034928;28;20056;-88
2021/11/17 13:55:25;;;;;;;1.10;0.75;;;7.60;99.90;;;;;;5033886;28;20481;-88
2021/11/17 13:57:53;;;;;;;1.40;1.08;;;7.60;99.90;;;;;;5033846;28;20042;-88
2021/11/17 14:00:22;;;;;;;7.18;1.00;;;7.60;99.90;;;;;;5033644;28;20064;-87
2021/11/17 14:02:49;;;;;;;4.50;1.27;;;7.40;99.90;;;;;;5033868;28;20128;-88
2021/11/17 14:05:19;;;;;;;1.33;1.17;;;7.30;99.90;;;;;;5033827;28;20049;-88
2021/11/17 14:07:49;;;;;;;0.90;0.90;;;7.30;99.90;;;;;;5033300;28;20045;-87
2021/11/17 14:10:18;;;;;;;1.20;1.20;;;7.30;99.90;;;;;;5033771;28;20055;-87
2021/11/17 14:12:46;;;;;;;7.32;1.52;;;7.20;99.90;;;;;;5033596;28;20395;-88
2021/11/17 14:15:15;;;;;;;2.90;1.35;;;7.30;99.90;;;;;;5033404;28;20053;-88
2021/11/17 14:17:42;;;;;;;3.28;1.35;;;7.20;99.90;;;;;;5033536;28;20049;-88
2021/11/17 14:20:10;;;;;;;1.67;1.15;;;7.20;99.90;;;;;;5033457;28;20051;-87
2021/11/17 14:22:37;;;;;;;3.33;1.17;;;7.20;99.90;;;;;;5033440;28;20115;-88
2021/11/17 14:25:10;;;;;;;2.35;1.48;;;7.20;99.90;;;;;;5034076;28;20092;-88
2021/11/17 14:27:40;;;;;;;5.07;1.20;;;7.30;99.90;;;;;;5033835;28;20473;-88
2021/11/17 14:30:12;;;;;;;2.25;1.48;;;7.20;99.90;;;;;;5033201;28;20148;-87
2021/11/17 14:32:41;;;;;;;1.85;0.90;;;7.20;99.90;;;;;;5033504;28;20481;-88
2021/11/17 14:35:09;;;;;;;1.70;0.93;;;7.20;99.90;;;;;;5033734;28;20059;-87
2021/11/17 14:37:36;;;;;;;3.75;1.05;;;7.10;99.90;;;;;;5033013;28;20056;-87
2021/11/17 14:40:05;;;;;;;1.35;1.10;;;7.10;99.90;;;;;;5033233;28;20053;-87
2021/11/17 14:42:31;;;;;;;2.40;0.93;;;7.00;99.90;;;;;;5032806;28;20493;-87
2021/11/17 14:44:58;;;;;;;2.40;1.33;;;7.00;99.90;;;;;;5032510;28;20053;-87
2021/11/17 14:47:25;;;;;;;2.20;1.00;;;6.90;99.90;;;;;;5043045;28;20118;-87
2021/11/17 14:49:51;;;;;;;3.08;1.30;;;6.90;99.90;;;;;;5036329;28;20570;-88
2021/11/17 14:52:21;;;;;;;1.73;1.10;;;6.90;99.90;;;;;;5036291;28;20437;-87
2021/11/17 14:54:49;;;;;;;2.70;1.30;;;6.80;99.90;;;;;;5035981;28;20505;-88
2021/11/17 14:57:17;;;;;;;1.90;1.42;;;6.80;99.90;;;;;;5036344;28;20087;-88
2021/11/17 14:59:45;;;;;;;2.03;1.05;;;6.70;99.90;;;;;;5035888;28;20091;-87
2021/11/17 15:02:12;;;;;;;1.27;1.17;;;6.50;99.90;;;;;;5036171;28;20045;-87
2021/11/17 15:04:39;;;;;;;1.20;1.10;;;6.30;99.90;;;;;;5035430;28;20061;-87
2021/11/17 15:07:09;;;;;;;1.40;1.30;;;6.20;99.90;;;;;;5035654;28;20048;-87
2021/11/17 15:09:37;;;;;;;1.30;1.30;;;6.10;99.90;;;;;;5035642;28;20049;-87
2021/11/17 15:12:22;;;;;;;2.10;1.48;;;6.00;99.90;;;;;;5035734;28;20089;-88
2021/11/17 15:14:49;;;;;;;4.18;1.20;;;5.90;99.90;;;;;;5052061;28;20511;-87
2021/11/17 15:17:16;;;;;;;9.60;2.33;;;5.90;99.90;;;;;;5053064;28;20055;-88
2021/11/17 15:19:44;;;;;;;4.38;1.75;;;6.00;99.90;;;;;;5035496;28;20408;-87
2021/11/17 15:22:11;;;;;;;1.95;1.85;;;6.00;99.90;;;;;;5035837;28;20087;-87
2021/11/17 15:24:39;;;;;;;2.95;2.42;;;6.00;99.90;;;;;;5035411;28;20059;-87
2021/11/17 15:27:11;;;;;;;3.90;2.20;;;6.00;99.90;;;;;;5035794;28;20079;-87
2021/11/17 15:29:40;;;;;;;4.70;1.52;;;6.00;99.90;;;;;;5053479;28;20084;-87
2021/11/17 15:32:08;;;;;;;3.10;1.38;;;6.00;99.90;;;;;;5036111;28;20053;-88
2021/11/17 15:34:35;;;;;;;5.10;1.85;;;6.10;99.90;;;;;;5035619;28;20051;-87
2021/11/17 15:37:02;;;;;;;1.95;1.40;;;6.10;99.90;;;;;;5035452;28;20055;-87
2021/11/17 15:39:29;;;;;;;2.90;1.77;;;6.10;99.90;;;;;;5035225;28;20124;-88
2021/11/17 15:41:55;;;;;;;3.03;1.17;;;6.20;99.90;;;;;;5035517;28;20507;-87
2021/11/17 15:44:22;;;;;;;3.60;1.60;;;6.20;99.90;;;;;;5035575;28;20092;-87
2021/11/17 15:46:52;;;;;;;3.17;1.48;;;6.20;99.90;;;;;;5035461;28;20045;-88
2021/11/17 15:49:20;;;;;;;2.65;1.55;;;6.20;99.90;;;;;;5035837;28;20052;-87
2021/11/17 15:51:49;;;;;;;1.75;1.65;;;6.20;99.90;;;;;;5035509;28;20051;-88
2021/11/17 15:54:18;;;;;;;1.88;1.70;;;6.20;99.90;;;;;;5035196;28;20052;-88
2021/11/17 15:56:46;;;;;;;4.00;1.80;;;6.20;99.90;;;;;;5035328;28;20055;-88
2021/11/17 15:59:13;;;;;;;1.55;1.45;;;6.20;99.90;;;;;;5035666;28;20056;-88
2021/11/17 16:01:40;;;;;;;2.15;1.77;;;6.20;99.90;;;;;;5035402;28;20123;-88
2021/11/17 16:04:07;;;;;;;6.05;2.28;;;6.30;99.90;;;;;;5052469;28;20116;-89
2021/11/17 16:07:00;;;;;;;11.77;2.45;;;6.30;99.90;;;;;;5034931;28;20466;-88
2021/11/17 16:09:30;;;;;;;1.70;1.60;;;6.30;99.90;;;;;;5035659;28;20055;-88
2021/11/17 16:11:58;;;;;;;1.40;1.40;;;6.30;99.90;;;;;;5053169;28;20076;-88
2021/11/17 16:14:25;;;;;;;2.60;2.40;;;6.30;99.90;;;;;;5052487;28;20051;-88